createdAt,value
2018-10-17T00:01:04.889Z,16.50
2018-10-17T00:03:33.511Z,16.50
2018-10-17T00:06:02.096Z,16.60
2018-10-17T00:08:30.694Z,16.50
2018-10-17T00:10:59.336Z,16.50
2018-10-17T00:13:27.946Z,16.50
2018-10-17T00:15:56.698Z,16.50
2018-10-17T00:18:25.592Z,16.50
2018-10-17T00:20:54.489Z,16.50
2018-10-17T00:23:23.404Z,16.50
2018-10-17T00:25:52.282Z,16.50
2018-10-17T00:28:21.529Z,16.50
2018-10-17T00:30:50.486Z,16.50
2018-10-17T00:33:19.293Z,16.50
2018-10-17T00:35:48.127Z,16.40
2018-10-17T00:38:16.953Z,16.50
2018-10-17T00:40:45.604Z,16.50
2018-10-17T00:43:14.253Z,16.50
2018-10-17T00:45:42.923Z,16.60
2018-10-17T00:48:11.699Z,16.50
2018-10-17T00:50:40.395Z,16.50
2018-10-17T00:53:09.100Z,16.40
2018-10-17T00:55:37.608Z,16.40
2018-10-17T00:58:06.387Z,16.40
2018-10-17T01:00:35.006Z,16.40
2018-10-17T01:03:03.654Z,16.30
2018-10-17T01:05:32.234Z,16.30
2018-10-17T01:08:00.889Z,16.20
2018-10-17T01:10:29.486Z,16.30
2018-10-17T01:12:58.107Z,16.30
2018-10-17T01:15:26.705Z,16.30
2018-10-17T01:17:55.590Z,16.30
2018-10-17T01:20:24.378Z,16.30
2018-10-17T01:22:53.173Z,16.30
2018-10-17T01:25:21.986Z,16.30
2018-10-17T01:27:50.756Z,16.20
2018-10-17T01:30:19.784Z,16.30
2018-10-17T01:32:48.624Z,16.30
2018-10-17T01:35:17.489Z,16.30
2018-10-17T01:37:46.160Z,16.30
2018-10-17T01:40:14.838Z,16.30
2018-10-17T01:42:43.466Z,16.30
2018-10-17T01:45:12.271Z,16.20
2018-10-17T01:47:40.892Z,16.20
2018-10-17T01:50:09.797Z,16.10
2018-10-17T01:52:38.389Z,16.10
2018-10-17T01:55:07.775Z,16.00
2018-10-17T01:57:36.723Z,16.10
2018-10-17T02:00:05.635Z,16.10
2018-10-17T02:02:34.222Z,16.00
2018-10-17T02:05:02.961Z,16.00
2018-10-17T02:07:31.470Z,15.90
2018-10-17T02:10:00.043Z,15.80
2018-10-17T02:12:28.738Z,15.80
2018-10-17T02:14:57.620Z,15.80
2018-10-17T02:17:26.343Z,15.70
2018-10-17T02:19:55.142Z,15.70
2018-10-17T02:22:23.942Z,15.60
2018-10-17T02:24:52.787Z,15.60
2018-10-17T02:27:21.505Z,15.60
2018-10-17T02:29:50.451Z,15.50
2018-10-17T02:32:19.323Z,15.50
2018-10-17T02:34:53.660Z,15.40
2018-10-17T02:37:22.352Z,15.40
2018-10-17T02:39:51.244Z,15.40
2018-10-17T02:42:20.155Z,15.40
2018-10-17T02:44:49.078Z,15.40
2018-10-17T02:47:17.753Z,15.40
2018-10-17T02:49:46.524Z,15.40
2018-10-17T02:52:15.127Z,15.40
2018-10-17T02:54:43.750Z,15.40
2018-10-17T02:57:12.575Z,15.40
2018-10-17T02:59:41.163Z,15.40
2018-10-17T03:02:09.847Z,15.40
2018-10-17T03:04:38.505Z,15.40
2018-10-17T03:07:07.329Z,15.30
2018-10-17T03:09:35.882Z,15.30
2018-10-17T03:12:04.561Z,15.30
2018-10-17T03:14:33.150Z,15.30
2018-10-17T03:17:01.752Z,15.30
2018-10-17T03:19:30.355Z,15.30
2018-10-17T03:21:59.007Z,15.20
2018-10-17T03:24:27.641Z,15.30
2018-10-17T03:26:56.406Z,15.30
2018-10-17T03:29:25.179Z,15.40
2018-10-17T03:31:53.933Z,15.30
2018-10-17T03:34:22.902Z,15.40
2018-10-17T03:36:51.765Z,15.40
2018-10-17T03:39:20.749Z,15.40
2018-10-17T03:41:49.711Z,15.40
2018-10-17T03:44:18.547Z,15.30
2018-10-17T03:46:47.337Z,15.40
2018-10-17T03:49:16.165Z,15.30
2018-10-17T03:51:44.762Z,15.30
2018-10-17T03:54:13.510Z,15.20
2018-10-17T03:56:42.334Z,15.20
2018-10-17T03:59:11.071Z,15.30
2018-10-17T04:01:39.748Z,15.30
2018-10-17T04:04:08.549Z,15.20
2018-10-17T04:06:37.165Z,15.20
2018-10-17T04:09:07.369Z,15.20
2018-10-17T04:11:35.971Z,15.20
2018-10-17T04:14:04.831Z,15.20
2018-10-17T04:16:33.448Z,15.30
2018-10-17T04:19:02.098Z,15.30
2018-10-17T04:21:30.672Z,15.20
2018-10-17T04:23:59.403Z,15.20
2018-10-17T04:26:28.234Z,15.20
2018-10-17T04:28:56.983Z,15.20
2018-10-17T04:31:25.775Z,15.20
2018-10-17T04:33:54.576Z,15.20
2018-10-17T04:36:23.425Z,15.20
2018-10-17T04:38:52.281Z,15.20
2018-10-17T04:41:21.188Z,15.30
2018-10-17T04:43:50.177Z,15.30
2018-10-17T04:46:19.160Z,15.30
2018-10-17T04:48:47.931Z,15.40
2018-10-17T04:51:16.774Z,15.40
2018-10-17T04:53:45.474Z,15.40
2018-10-17T04:56:14.116Z,15.40
2018-10-17T04:58:42.921Z,15.40
2018-10-17T05:01:11.723Z,15.30
2018-10-17T05:03:40.349Z,15.30
2018-10-17T05:06:09.106Z,15.30
2018-10-17T05:08:37.843Z,15.20
2018-10-17T05:11:06.698Z,15.30
2018-10-17T05:13:35.266Z,15.20
2018-10-17T05:16:03.874Z,15.20
2018-10-17T05:18:32.499Z,15.20
2018-10-17T05:21:01.077Z,15.10
2018-10-17T05:23:29.690Z,15.00
2018-10-17T05:25:58.323Z,15.00
2018-10-17T05:28:27.420Z,15.00
2018-10-17T05:30:56.426Z,15.00
2018-10-17T05:33:25.195Z,14.90
2018-10-17T05:35:53.959Z,14.90
2018-10-17T05:38:22.659Z,14.90
2018-10-17T05:40:51.668Z,14.90
2018-10-17T05:43:21.112Z,14.80
2018-10-17T05:45:50.207Z,14.90
2018-10-17T05:48:19.237Z,14.80
2018-10-17T05:50:48.362Z,14.80
2018-10-17T05:53:17.045Z,14.80
2018-10-17T05:55:45.927Z,14.80
2018-10-17T05:58:14.612Z,14.90
2018-10-17T06:00:43.286Z,14.90
2018-10-17T06:03:11.874Z,14.90
2018-10-17T06:05:40.564Z,14.90
2018-10-17T06:08:09.188Z,15.00
2018-10-17T06:10:37.786Z,15.00
2018-10-17T06:13:06.544Z,15.00
2018-10-17T06:15:35.127Z,15.00
2018-10-17T06:18:03.733Z,15.00
2018-10-17T06:20:32.323Z,15.00
2018-10-17T06:23:00.961Z,15.00
2018-10-17T06:25:29.534Z,14.90
2018-10-17T06:27:58.259Z,14.90
2018-10-17T06:30:27.067Z,14.80
2018-10-17T06:32:55.680Z,14.70
2018-10-17T06:35:24.343Z,14.70
2018-10-17T06:37:53.154Z,14.60
2018-10-17T06:40:22.119Z,14.60
2018-10-17T06:42:50.846Z,14.50
2018-10-17T06:45:19.658Z,14.40
2018-10-17T06:47:48.863Z,14.40
2018-10-17T06:50:17.583Z,14.20
2018-10-17T06:52:46.265Z,14.30
2018-10-17T06:55:14.977Z,14.20
2018-10-17T06:57:43.610Z,14.20
2018-10-17T07:00:12.413Z,14.20
2018-10-17T07:02:41.195Z,14.30
2018-10-17T07:05:11.338Z,14.30
2018-10-17T07:07:40.423Z,14.20
2018-10-17T07:10:09.359Z,14.30
2018-10-17T07:12:38.223Z,14.30
2018-10-17T07:15:07.591Z,14.30
2018-10-17T07:17:36.594Z,14.40
2018-10-17T07:20:06.364Z,14.50
2018-10-17T07:22:35.103Z,14.60
2018-10-17T07:25:03.954Z,14.70
2018-10-17T07:27:32.598Z,14.90
2018-10-17T07:30:01.258Z,15.00
2018-10-17T07:32:30.063Z,15.20
2018-10-17T07:34:58.856Z,15.30
2018-10-17T07:37:27.619Z,15.50
2018-10-17T07:39:56.354Z,15.60
2018-10-17T07:42:25.144Z,15.70
2018-10-17T07:44:54.020Z,15.80
2018-10-17T07:47:23.145Z,15.90
2018-10-17T07:49:52.216Z,15.90
2018-10-17T07:52:21.200Z,16.00
2018-10-17T07:54:50.086Z,16.10
2018-10-17T07:57:19.068Z,16.10
2018-10-17T07:59:48.110Z,16.20
2018-10-17T08:02:17.087Z,16.20
2018-10-17T08:04:45.784Z,16.30
2018-10-17T08:07:15.691Z,16.30
2018-10-17T08:09:44.492Z,16.40
2018-10-17T08:12:13.293Z,16.50
2018-10-17T08:14:42.700Z,16.60
2018-10-17T08:17:13.641Z,16.70
2018-10-17T08:19:49.184Z,16.80
2018-10-17T08:22:17.959Z,17.00
2018-10-17T08:24:46.750Z,17.10
2018-10-17T08:27:15.388Z,17.30
2018-10-17T08:29:44.185Z,17.30
2018-10-17T08:32:12.811Z,17.40
2018-10-17T08:34:41.664Z,17.50
2018-10-17T08:37:10.524Z,17.60
2018-10-17T08:39:39.830Z,17.70
2018-10-17T08:42:08.461Z,17.70
2018-10-17T08:44:37.075Z,17.70
2018-10-17T08:47:06.010Z,17.90
2018-10-17T08:49:34.624Z,18.00
2018-10-17T08:52:03.217Z,18.20
2018-10-17T08:54:31.864Z,18.30
2018-10-17T08:57:00.470Z,18.40
2018-10-17T08:59:29.122Z,18.50
2018-10-17T09:01:58.059Z,18.80
2018-10-17T09:04:27.050Z,19.00
2018-10-17T09:06:55.636Z,19.00
2018-10-17T09:09:24.349Z,18.90
2018-10-17T09:11:53.185Z,19.00
2018-10-17T09:14:21.872Z,19.10
2018-10-17T09:16:50.771Z,19.30
2018-10-17T09:19:19.687Z,19.40
2018-10-17T09:21:48.950Z,19.50
2018-10-17T09:24:17.665Z,19.80
2018-10-17T09:26:46.620Z,19.80
2018-10-17T09:29:15.277Z,19.80
2018-10-17T09:31:44.007Z,19.70
2018-10-17T09:34:12.822Z,19.80
2018-10-17T09:36:41.516Z,19.80
2018-10-17T09:39:11.840Z,20.00
2018-10-17T09:41:40.901Z,20.20
2018-10-17T09:44:09.703Z,20.40
2018-10-17T09:46:38.579Z,20.50
2018-10-17T09:49:07.168Z,20.70
2018-10-17T09:51:35.783Z,20.70
2018-10-17T09:54:04.432Z,21.00
2018-10-17T09:56:33.055Z,21.10
2018-10-17T09:59:01.659Z,21.40
2018-10-17T10:01:34.242Z,21.40
2018-10-17T10:04:02.956Z,21.40
2018-10-17T10:06:31.512Z,21.40
2018-10-17T10:09:00.299Z,21.50
2018-10-17T10:11:28.948Z,21.70
2018-10-17T10:13:57.878Z,21.80
2018-10-17T10:16:26.643Z,21.90
2018-10-17T10:18:55.537Z,22.10
2018-10-17T10:21:24.423Z,22.30
2018-10-17T10:23:53.325Z,22.40
2018-10-17T10:26:22.149Z,22.60
2018-10-17T10:28:51.122Z,22.60
2018-10-17T10:31:20.143Z,22.80
2018-10-17T10:33:49.533Z,23.00
2018-10-17T10:36:18.622Z,23.00
2018-10-17T10:38:47.448Z,23.30
2018-10-17T10:41:16.190Z,23.30
2018-10-17T10:43:44.804Z,23.50
2018-10-17T10:46:13.422Z,23.50
2018-10-17T10:48:42.134Z,23.60
2018-10-17T10:51:10.781Z,24.10
2018-10-17T10:53:39.611Z,24.10
2018-10-17T10:56:08.314Z,24.40
2018-10-17T10:58:37.109Z,24.50
2018-10-17T11:01:05.753Z,24.70
2018-10-17T11:03:34.378Z,24.70
2018-10-17T11:06:03.014Z,24.70
2018-10-17T11:08:32.449Z,24.60
2018-10-17T11:11:01.196Z,24.80
2018-10-17T11:13:29.732Z,24.80
2018-10-17T11:15:58.507Z,25.00
2018-10-17T11:18:27.312Z,25.10
2018-10-17T11:20:56.075Z,25.20
2018-10-17T11:23:24.980Z,25.20
2018-10-17T11:25:53.963Z,25.30
2018-10-17T11:28:23.133Z,25.20
2018-10-17T11:30:52.370Z,25.20
2018-10-17T11:33:21.458Z,25.10
2018-10-17T11:35:50.270Z,25.20
2018-10-17T11:38:19.294Z,25.30
2018-10-17T11:40:49.120Z,25.60
2018-10-17T11:43:18.010Z,25.90
2018-10-17T11:45:46.753Z,26.30
2018-10-17T11:48:15.384Z,26.60
2018-10-17T11:50:44.008Z,26.70
2018-10-17T11:53:12.691Z,26.70
2018-10-17T11:55:41.653Z,26.90
2018-10-17T11:58:10.513Z,26.80
2018-10-17T12:00:39.233Z,26.50
2018-10-17T12:03:07.912Z,26.50
2018-10-17T12:05:36.908Z,26.30
2018-10-17T12:08:05.217Z,26.40
2018-10-17T12:10:33.816Z,26.60
2018-10-17T12:13:02.583Z,26.60
2018-10-17T12:15:31.190Z,26.70
2018-10-17T12:17:59.857Z,26.80
2018-10-17T12:20:28.499Z,27.10
2018-10-17T12:22:57.203Z,27.20
2018-10-17T12:25:25.997Z,27.50
2018-10-17T12:27:54.903Z,27.80
2018-10-17T12:30:23.689Z,27.90
2018-10-17T12:32:52.673Z,27.70
2018-10-17T12:35:21.539Z,27.70
2018-10-17T12:37:50.438Z,28.00
2018-10-17T12:40:19.451Z,27.90
2018-10-17T12:42:48.368Z,28.00
2018-10-17T12:45:17.350Z,27.80
2018-10-17T12:47:45.812Z,27.50
2018-10-17T12:50:14.655Z,27.30
2018-10-17T12:52:43.336Z,27.00
2018-10-17T12:55:11.955Z,27.00
2018-10-17T12:57:40.551Z,26.60
2018-10-17T13:00:10.201Z,26.50
2018-10-17T13:02:44.425Z,26.30
2018-10-17T13:05:13.245Z,26.10
2018-10-17T13:07:41.784Z,26.10
2018-10-17T13:10:11.298Z,26.00
2018-10-17T13:12:40.627Z,25.90
2018-10-17T13:15:12.307Z,25.70
2018-10-17T13:17:41.084Z,25.70
2018-10-17T13:20:09.799Z,25.70
2018-10-17T13:22:38.549Z,25.70
2018-10-17T13:25:07.619Z,25.60
2018-10-17T13:27:36.161Z,25.70
2018-10-17T13:30:06.016Z,25.60
2018-10-17T13:32:34.620Z,25.70
2018-10-17T13:35:03.370Z,25.80
2018-10-17T13:37:31.920Z,25.70
2018-10-17T13:40:00.617Z,25.80
2018-10-17T13:42:29.205Z,26.10
2018-10-17T13:44:57.844Z,26.60
2018-10-17T13:47:26.611Z,26.90
2018-10-17T13:49:56.446Z,27.30
2018-10-17T13:52:25.333Z,27.50
2018-10-17T13:54:54.294Z,27.60
2018-10-17T13:57:22.956Z,27.80
2018-10-17T13:59:51.718Z,27.90
2018-10-17T14:02:20.558Z,28.00
2018-10-17T14:04:53.604Z,28.00
2018-10-17T14:07:23.246Z,27.90
2018-10-17T14:09:52.615Z,27.90
2018-10-17T14:12:21.996Z,27.70
2018-10-17T14:15:00.477Z,27.50
2018-10-17T14:17:29.110Z,27.30
2018-10-17T14:19:57.713Z,27.50
2018-10-17T14:22:26.446Z,27.40
2018-10-17T14:24:55.075Z,27.20
2018-10-17T14:27:23.810Z,27.20
2018-10-17T14:29:52.546Z,27.20
2018-10-17T14:32:21.358Z,26.90
2018-10-17T14:34:50.179Z,26.80
2018-10-17T14:37:19.028Z,26.70
2018-10-17T14:39:47.821Z,26.50
2018-10-17T14:42:17.844Z,26.30
2018-10-17T14:44:46.457Z,26.20
2018-10-17T14:47:15.063Z,26.00
2018-10-17T14:49:43.652Z,25.90
2018-10-17T14:52:12.247Z,25.60
2018-10-17T14:54:40.826Z,25.40
2018-10-17T14:57:09.548Z,25.20
2018-10-17T14:59:38.250Z,24.90
2018-10-17T15:02:07.084Z,24.70
2018-10-17T15:04:35.679Z,24.50
2018-10-17T15:07:04.327Z,24.40
2018-10-17T15:09:32.918Z,24.20
2018-10-17T15:12:01.550Z,24.00
2018-10-17T15:14:30.143Z,23.90
2018-10-17T15:16:58.816Z,23.70
2018-10-17T15:19:27.398Z,23.50
2018-10-17T15:21:56.023Z,23.30
2018-10-17T15:24:24.804Z,23.20
2018-10-17T15:26:53.565Z,23.00
2018-10-17T15:29:22.331Z,22.90
2018-10-17T15:31:51.231Z,22.70
2018-10-17T15:34:19.989Z,22.60
2018-10-17T15:36:49.044Z,22.60
2018-10-17T15:39:17.893Z,22.50
2018-10-17T15:41:46.626Z,22.50
2018-10-17T15:44:15.249Z,22.40
2018-10-17T15:46:43.893Z,22.30
2018-10-17T15:49:12.538Z,22.20
2018-10-17T15:51:41.146Z,22.10
2018-10-17T15:54:09.892Z,22.00
2018-10-17T15:56:38.648Z,21.90
2018-10-17T15:59:07.461Z,21.70
2018-10-17T16:01:36.117Z,21.60
2018-10-17T16:04:05.791Z,21.50
2018-10-17T16:06:34.373Z,21.30
2018-10-17T16:09:03.092Z,21.30
2018-10-17T16:11:31.691Z,21.10
2018-10-17T16:14:00.352Z,21.00
2018-10-17T16:16:28.918Z,20.80
2018-10-17T16:18:57.546Z,20.60
2018-10-17T16:21:26.346Z,20.50
2018-10-17T16:23:55.074Z,20.40
2018-10-17T16:26:23.758Z,20.30
2018-10-17T16:28:52.590Z,20.10
2018-10-17T16:31:21.565Z,19.90
2018-10-17T16:33:50.427Z,19.80
2018-10-17T16:36:19.537Z,19.70
2018-10-17T16:38:48.238Z,19.60
2018-10-17T16:41:16.973Z,19.50
2018-10-17T16:43:45.641Z,19.50
2018-10-17T16:46:14.348Z,19.40
2018-10-17T16:48:43.150Z,19.30
2018-10-17T16:51:11.739Z,19.30
2018-10-17T16:53:40.386Z,19.20
2018-10-17T16:56:09.322Z,19.10
2018-10-17T16:58:38.143Z,19.00
2018-10-17T17:01:07.534Z,18.90
2018-10-17T17:03:36.282Z,18.70
2018-10-17T17:06:04.974Z,18.60
2018-10-17T17:08:33.526Z,18.50
2018-10-17T17:11:02.165Z,18.50
2018-10-17T17:13:30.776Z,18.30
2018-10-17T17:15:59.374Z,18.20
2018-10-17T17:18:27.967Z,18.20
2018-10-17T17:20:56.620Z,18.10
2018-10-17T17:23:25.229Z,18.10
2018-10-17T17:25:53.945Z,18.00
2018-10-17T17:28:22.700Z,18.00
2018-10-17T17:30:51.652Z,17.90
2018-10-17T17:33:20.609Z,17.90
2018-10-17T17:35:49.518Z,17.90
2018-10-17T17:38:18.362Z,17.80
2018-10-17T17:40:47.320Z,17.80
2018-10-17T17:43:15.967Z,17.70
2018-10-17T17:45:44.770Z,17.60
2018-10-17T17:48:13.347Z,17.60
2018-10-17T17:50:41.952Z,17.50
2018-10-17T17:53:10.574Z,17.50
2018-10-17T17:55:39.257Z,17.50
2018-10-17T17:58:08.007Z,17.40
2018-10-17T18:00:36.684Z,17.40
2018-10-17T18:03:05.660Z,17.40
2018-10-17T18:05:34.278Z,17.40
2018-10-17T18:08:03.043Z,17.30
2018-10-17T18:10:31.735Z,17.30
2018-10-17T18:13:00.334Z,17.30
2018-10-17T18:15:28.934Z,17.30
2018-10-17T18:17:57.549Z,17.30
2018-10-17T18:20:26.202Z,17.40
2018-10-17T18:22:55.027Z,17.30
2018-10-17T18:25:23.799Z,17.30
2018-10-17T18:27:53.536Z,17.20
2018-10-17T18:30:22.340Z,17.10
2018-10-17T18:32:51.243Z,17.10
2018-10-17T18:35:20.111Z,17.10
2018-10-17T18:37:49.018Z,17.10
2018-10-17T18:40:17.918Z,17.10
2018-10-17T18:42:46.573Z,17.10
2018-10-17T18:45:15.159Z,17.00
2018-10-17T18:47:43.897Z,17.00
2018-10-17T18:50:12.867Z,17.00
2018-10-17T18:52:41.514Z,17.00
2018-10-17T18:55:10.358Z,17.00
2018-10-17T18:57:38.990Z,17.00
2018-10-17T19:00:09.401Z,17.00
2018-10-17T19:02:38.153Z,17.00
2018-10-17T19:05:07.569Z,16.90
2018-10-17T19:07:36.190Z,16.90
2018-10-17T19:10:05.104Z,16.90
2018-10-17T19:12:33.827Z,16.80
2018-10-17T19:15:02.530Z,16.80
2018-10-17T19:17:31.078Z,16.70
2018-10-17T19:19:59.712Z,16.70
2018-10-17T19:22:28.423Z,16.60
2018-10-17T19:24:57.182Z,16.50
2018-10-17T19:27:25.833Z,16.50
2018-10-17T19:29:54.732Z,16.50
2018-10-17T19:32:23.469Z,16.50
2018-10-17T19:34:52.251Z,16.50
2018-10-17T19:37:21.432Z,16.60
2018-10-17T19:39:50.373Z,16.50
2018-10-17T19:42:19.636Z,16.50
2018-10-17T19:44:49.511Z,16.50
2018-10-17T19:47:19.688Z,16.50
2018-10-17T19:49:48.580Z,16.40
2018-10-17T19:52:17.306Z,16.40
2018-10-17T19:54:45.990Z,16.30
2018-10-17T19:57:14.636Z,16.20
2018-10-17T19:59:43.344Z,16.10
2018-10-17T20:02:12.119Z,16.10
2018-10-17T20:04:40.644Z,16.10
2018-10-17T20:07:09.851Z,16.20
2018-10-17T20:09:38.616Z,16.20
2018-10-17T20:12:07.469Z,16.20
2018-10-17T20:14:36.099Z,16.20
2018-10-17T20:17:04.881Z,16.20
2018-10-17T20:19:33.470Z,16.30
2018-10-17T20:22:02.080Z,16.30
2018-10-17T20:24:30.686Z,16.30
2018-10-17T20:26:59.547Z,16.30
2018-10-17T20:29:28.473Z,16.30
2018-10-17T20:31:57.107Z,16.20
2018-10-17T20:34:25.734Z,16.20
2018-10-17T20:36:54.634Z,16.20
2018-10-17T20:39:23.635Z,16.20
2018-10-17T20:41:52.547Z,16.10
2018-10-17T20:44:21.437Z,16.00
2018-10-17T20:46:50.514Z,16.00
2018-10-17T20:49:19.583Z,16.00
2018-10-17T20:51:48.874Z,15.90
2018-10-17T20:54:17.849Z,15.80
2018-10-17T20:56:46.702Z,15.80
2018-10-17T20:59:15.319Z,15.80
2018-10-17T21:01:43.993Z,15.70
2018-10-17T21:04:12.614Z,15.70
2018-10-17T21:06:41.550Z,15.60
2018-10-17T21:09:13.668Z,15.50
2018-10-17T21:11:42.855Z,15.50
2018-10-17T21:14:11.922Z,15.40
2018-10-17T21:16:41.489Z,15.40
2018-10-17T21:19:10.210Z,15.40
2018-10-17T21:21:39.223Z,15.40
2018-10-17T21:24:08.014Z,15.30
2018-10-17T21:26:36.637Z,15.30
2018-10-17T21:29:05.953Z,15.20
2018-10-17T21:31:34.582Z,15.20
2018-10-17T21:34:03.238Z,15.20
2018-10-17T21:36:32.017Z,15.10
2018-10-17T21:39:07.330Z,15.10
2018-10-17T21:41:35.987Z,15.10
2018-10-17T21:44:05.096Z,15.10
2018-10-17T21:46:33.567Z,15.20
2018-10-17T21:49:04.114Z,15.10
2018-10-17T21:51:32.710Z,15.10
2018-10-17T21:54:01.362Z,15.10
2018-10-17T21:56:29.965Z,15.10
2018-10-17T21:58:58.553Z,15.10
2018-10-17T22:01:27.170Z,15.10
2018-10-17T22:03:55.765Z,15.10
2018-10-17T22:06:24.553Z,15.20
2018-10-17T22:08:53.621Z,15.20
2018-10-17T22:11:22.475Z,15.20
2018-10-17T22:13:51.200Z,15.20
2018-10-17T22:16:20.068Z,15.10
2018-10-17T22:18:49.088Z,15.20
2018-10-17T22:21:17.889Z,15.20
2018-10-17T22:23:48.909Z,15.20
2018-10-17T22:26:17.793Z,15.10
2018-10-17T22:28:46.494Z,15.10
2018-10-17T22:31:15.110Z,15.00
2018-10-17T22:33:43.706Z,15.10
2018-10-17T22:36:12.370Z,15.10
2018-10-17T22:38:40.964Z,15.10
2018-10-17T22:41:09.930Z,15.10
2018-10-17T22:43:38.626Z,15.00
2018-10-17T22:46:07.271Z,14.90
2018-10-17T22:48:35.990Z,14.90
2018-10-17T22:51:04.586Z,14.90
2018-10-17T22:53:33.185Z,14.90
2018-10-17T22:56:01.851Z,14.80
2018-10-17T22:58:30.393Z,14.80
2018-10-17T23:00:59.050Z,14.70
2018-10-17T23:03:28.851Z,14.70
2018-10-17T23:05:57.519Z,14.60
2018-10-17T23:08:26.135Z,14.60
2018-10-17T23:10:54.873Z,14.60
2018-10-17T23:13:23.674Z,14.50
2018-10-17T23:15:52.486Z,14.50
2018-10-17T23:18:21.414Z,14.50
2018-10-17T23:20:50.281Z,14.40
2018-10-17T23:23:19.102Z,14.40
2018-10-17T23:25:48.158Z,14.40
2018-10-17T23:28:16.994Z,14.30
2018-10-17T23:30:45.620Z,14.30
2018-10-17T23:33:14.289Z,14.20
2018-10-17T23:35:42.894Z,14.10
2018-10-17T23:38:11.724Z,14.10
2018-10-17T23:40:40.329Z,14.00
2018-10-17T23:43:10.081Z,14.00
2018-10-17T23:45:38.934Z,13.90
2018-10-17T23:48:08.380Z,13.90
2018-10-17T23:50:37.413Z,13.90
2018-10-17T23:53:06.322Z,13.80
2018-10-17T23:55:34.910Z,13.80
2018-10-17T23:58:03.539Z,13.70
